createdAt,value
2018-04-07T00:00:07.366Z,100679.94
2018-04-07T00:02:35.792Z,100674.26
2018-04-07T00:05:05.585Z,100679.19
2018-04-07T00:07:33.879Z,100677.39
2018-04-07T00:10:09.139Z,100682.64
2018-04-07T00:12:37.705Z,100682.43
2018-04-07T00:15:05.976Z,100684.10
2018-04-07T00:17:34.248Z,100689.11
2018-04-07T00:20:06.329Z,100696.67
2018-04-07T00:22:34.605Z,100645.95
2018-04-07T00:25:06.589Z,100707.77
2018-04-07T00:27:34.921Z,100712.98
2018-04-07T00:30:06.888Z,100711.94
2018-04-07T00:32:35.628Z,100709.42
2018-04-07T00:35:06.425Z,100711.50
2018-04-07T00:37:34.948Z,100716.47
2018-04-07T00:40:06.938Z,100708.03
2018-04-07T00:42:35.209Z,100707.81
2018-04-07T00:45:07.368Z,100709.83
2018-04-07T00:47:35.705Z,100718.06
2018-04-07T00:50:08.837Z,100709.58
2018-04-07T00:52:49.303Z,100709.77
2018-04-07T00:55:17.592Z,100705.06
2018-04-07T00:57:45.869Z,100710.22
2018-04-07T01:00:14.174Z,100700.53
2018-04-07T01:02:42.621Z,100707.44
2018-04-07T01:05:10.973Z,100707.42
2018-04-07T01:07:39.534Z,100700.89
2018-04-07T01:10:07.843Z,100699.25
2018-04-07T01:12:36.352Z,100695.65
2018-04-07T01:15:06.275Z,100699.44
2018-04-07T01:17:34.574Z,100691.80
2018-04-07T01:20:05.887Z,100691.05
2018-04-07T01:22:34.208Z,100691.43
2018-04-07T01:25:06.052Z,100682.28
2018-04-07T01:27:34.611Z,100685.81
2018-04-07T01:30:06.176Z,100681.15
2018-04-07T01:32:34.495Z,100687.77
2018-04-07T01:35:06.490Z,100685.39
2018-04-07T01:37:34.789Z,100683.69
2018-04-07T01:40:05.824Z,100679.95
2018-04-07T01:42:34.392Z,100668.34
2018-04-07T01:45:06.476Z,100662.19
2018-04-07T01:47:34.786Z,100663.09
2018-04-07T01:50:06.898Z,100664.81
2018-04-07T01:52:35.200Z,100658.83
2018-04-07T01:55:07.219Z,100657.42
2018-04-07T01:57:35.527Z,100657.00
2018-04-07T02:00:07.552Z,100641.18
2018-04-07T02:02:36.519Z,100639.02
2018-04-07T02:05:05.850Z,100642.84
2018-04-07T02:07:34.136Z,100651.48
2018-04-07T02:10:05.652Z,100640.24
2018-04-07T02:12:33.930Z,100652.38
2018-04-07T02:15:06.341Z,100652.05
2018-04-07T02:17:34.621Z,100643.48
2018-04-07T02:20:06.771Z,100632.61
2018-04-07T02:22:35.046Z,100632.47
2018-04-07T02:25:06.382Z,100622.66
2018-04-07T02:27:34.655Z,100629.02
2018-04-07T02:30:06.101Z,100637.27
2018-04-07T02:32:34.381Z,100585.47
2018-04-07T02:35:08.352Z,100631.97
2018-04-07T02:37:36.902Z,100629.77
2018-04-07T02:40:06.134Z,100631.26
2018-04-07T02:42:34.484Z,100630.81
2018-04-07T02:45:05.825Z,100632.02
2018-04-07T02:47:34.130Z,100632.69
2018-04-07T02:50:05.991Z,100625.03
2018-04-07T02:52:34.256Z,100617.45
2018-04-07T02:55:09.554Z,100625.25
2018-04-07T02:57:37.828Z,100622.58
2018-04-07T03:00:06.126Z,100626.70
2018-04-07T03:02:34.413Z,100622.53
2018-04-07T03:05:06.509Z,100625.55
2018-04-07T03:07:34.784Z,100619.41
2018-04-07T03:10:05.994Z,100616.44
2018-04-07T03:12:34.305Z,100621.71
2018-04-07T03:15:05.796Z,100629.14
2018-04-07T03:17:34.119Z,100627.34
2018-04-07T03:20:06.426Z,100622.98
2018-04-07T03:22:34.894Z,100624.63
2018-04-07T03:25:06.352Z,100630.03
2018-04-07T03:27:35.009Z,100630.73
2018-04-07T03:30:06.760Z,100630.50
2018-04-07T03:32:35.216Z,100636.13
2018-04-07T03:35:07.145Z,100630.02
2018-04-07T03:37:35.424Z,100631.92
2018-04-07T03:40:06.620Z,100637.02
2018-04-07T03:42:34.904Z,100635.11
2018-04-07T03:45:07.101Z,100632.28
2018-04-07T03:47:35.425Z,100627.14
2018-04-07T03:50:08.242Z,100632.44
2018-04-07T03:52:36.547Z,100630.19
2018-04-07T03:55:07.737Z,100633.76
2018-04-07T03:57:36.683Z,100631.56
2018-04-07T04:00:06.327Z,100636.75
2018-04-07T04:02:34.616Z,100631.22
2018-04-07T04:05:05.889Z,100625.70
2018-04-07T04:07:34.459Z,100620.63
2018-04-07T04:10:06.569Z,100621.75
2018-04-07T04:12:34.839Z,100627.12
2018-04-07T04:15:06.033Z,100630.67
2018-04-07T04:17:34.490Z,100609.95
2018-04-07T04:20:08.514Z,100635.89
2018-04-07T04:22:36.779Z,100621.79
2018-04-07T04:25:06.349Z,100628.55
2018-04-07T04:27:34.604Z,100629.56
2018-04-07T04:30:06.726Z,100618.97
2018-04-07T04:32:35.002Z,100622.74
2018-04-07T04:35:07.190Z,100624.84
2018-04-07T04:37:35.469Z,100622.20
2018-04-07T04:40:07.458Z,100616.80
2018-04-07T04:42:35.777Z,100619.28
2018-04-07T04:45:08.075Z,100615.31
2018-04-07T04:47:36.583Z,100603.58
2018-04-07T04:50:05.994Z,100595.45
2018-04-07T04:52:34.338Z,100594.80
2018-04-07T04:55:06.158Z,100604.98
2018-04-07T04:57:38.952Z,100608.20
2018-04-07T05:00:07.262Z,100609.38
2018-04-07T05:02:35.552Z,100612.95
2018-04-07T05:05:07.067Z,100615.75
2018-04-07T05:07:35.585Z,100611.07
2018-04-07T05:10:07.297Z,100621.14
2018-04-07T05:12:35.596Z,100619.90
2018-04-07T05:15:07.838Z,100628.83
2018-04-07T05:17:36.309Z,100617.92
2018-04-07T05:20:06.016Z,100615.08
2018-04-07T05:22:34.297Z,100615.66
2018-04-07T05:25:06.189Z,100615.81
2018-04-07T05:27:35.240Z,100611.48
2018-04-07T05:30:08.061Z,100603.55
2018-04-07T05:32:36.356Z,100601.24
2018-04-07T05:35:07.716Z,100607.18
2018-04-07T05:37:36.387Z,100602.09
2018-04-07T05:40:07.031Z,100612.70
2018-04-07T05:42:35.317Z,100617.49
2018-04-07T05:45:06.920Z,100612.98
2018-04-07T05:47:35.212Z,100614.69
2018-04-07T05:50:07.584Z,100607.09
2018-04-07T05:52:35.867Z,100604.61
2018-04-07T05:55:07.825Z,100605.20
2018-04-07T05:57:36.092Z,100613.42
2018-04-07T06:00:05.943Z,100615.25
2018-04-07T06:02:34.222Z,100619.83
2018-04-07T06:05:06.378Z,100616.91
2018-04-07T06:07:35.138Z,100612.66
2018-04-07T06:10:06.853Z,100606.52
2018-04-07T06:12:35.134Z,100611.20
2018-04-07T06:15:07.172Z,100615.40
2018-04-07T06:17:35.513Z,100621.24
2018-04-07T06:20:05.999Z,100619.20
2018-04-07T06:22:34.272Z,100621.39
2018-04-07T06:25:06.459Z,100622.55
2018-04-07T06:27:34.744Z,100627.05
2018-04-07T06:30:06.175Z,100619.33
2018-04-07T06:32:34.446Z,100613.57
2018-04-07T06:35:05.986Z,100610.43
2018-04-07T06:37:34.262Z,100615.79
2018-04-07T06:40:05.724Z,100617.84
2018-04-07T06:42:34.174Z,100606.82
2018-04-07T06:45:05.649Z,100613.84
2018-04-07T06:47:33.928Z,100610.70
2018-04-07T06:50:06.200Z,100600.73
2018-04-07T06:52:34.500Z,100604.40
2018-04-07T06:55:06.273Z,100607.31
2018-04-07T06:57:34.505Z,100608.00
2018-04-07T07:00:09.544Z,100606.13
2018-04-07T07:02:38.264Z,100605.58
2018-04-07T07:05:06.527Z,100597.39
2018-04-07T07:07:35.053Z,100613.91
2018-04-07T07:10:06.056Z,100602.41
2018-04-07T07:12:34.385Z,100593.69
2018-04-07T07:15:06.142Z,100593.19
2018-04-07T07:17:34.446Z,100595.45
2018-04-07T07:20:08.528Z,100591.93
2018-04-07T07:22:36.830Z,100590.31
2018-04-07T07:25:06.136Z,100590.81
2018-04-07T07:27:34.464Z,100593.94
2018-04-07T07:30:06.405Z,100591.81
2018-04-07T07:32:34.716Z,100579.31
2018-04-07T07:35:07.022Z,100579.69
2018-04-07T07:37:35.319Z,100586.98
2018-04-07T07:40:07.170Z,100583.05
2018-04-07T07:42:35.467Z,100573.61
2018-04-07T07:45:07.413Z,100577.14
2018-04-07T07:47:35.736Z,100575.17
2018-04-07T07:50:07.773Z,100578.09
2018-04-07T07:52:36.048Z,100581.98
2018-04-07T07:55:08.025Z,100569.33
2018-04-07T07:57:36.290Z,100566.81
2018-04-07T08:00:06.397Z,100564.92
2018-04-07T08:02:34.717Z,100567.86
2018-04-07T08:05:07.158Z,100558.31
2018-04-07T08:07:35.446Z,100562.77
2018-04-07T08:10:07.187Z,100560.05
2018-04-07T08:12:35.565Z,100563.78
2018-04-07T08:15:06.104Z,100551.45
2018-04-07T08:17:34.444Z,100541.23
2018-04-07T08:20:05.937Z,100534.92
2018-04-07T08:22:34.223Z,100539.95
2018-04-07T08:25:05.546Z,100545.85
2018-04-07T08:27:33.841Z,100549.84
2018-04-07T08:30:08.705Z,100533.58
2018-04-07T08:32:36.989Z,100539.40
2018-04-07T08:35:07.133Z,100529.84
2018-04-07T08:37:35.422Z,100531.93
2018-04-07T08:40:07.575Z,100527.59
2018-04-07T08:42:36.084Z,100527.77
2018-04-07T08:45:07.820Z,100535.95
2018-04-07T08:47:36.136Z,100534.58
2018-04-07T08:50:06.234Z,100540.92
2018-04-07T08:52:34.532Z,100534.02
2018-04-07T08:55:06.526Z,100544.89
2018-04-07T08:57:34.801Z,100538.22
2018-04-07T09:00:08.766Z,100540.72
2018-04-07T09:02:37.110Z,100530.27
2018-04-07T09:05:07.221Z,100544.00
2018-04-07T09:07:35.506Z,100542.29
2018-04-07T09:10:06.200Z,100529.66
2018-04-07T09:12:34.692Z,100538.47
2018-04-07T09:15:06.079Z,100531.50
2018-04-07T09:17:34.396Z,100539.03
2018-04-07T09:20:05.938Z,100541.77
2018-04-07T09:22:34.294Z,100541.00
2018-04-07T09:25:06.030Z,100536.66
2018-04-07T09:27:34.337Z,100540.06
2018-04-07T09:30:09.200Z,100527.60
2018-04-07T09:32:37.726Z,100535.75
2018-04-07T09:35:06.792Z,100529.16
2018-04-07T09:37:35.089Z,100527.16
2018-04-07T09:40:06.313Z,100515.60
2018-04-07T09:42:34.588Z,100516.11
2018-04-07T09:45:06.312Z,100525.77
2018-04-07T09:47:34.599Z,100518.47
2018-04-07T09:50:06.005Z,100509.69
2018-04-07T09:52:34.289Z,100490.27
2018-04-07T09:55:05.977Z,100505.44
2018-04-07T09:57:34.493Z,100502.27
2018-04-07T10:00:05.927Z,100497.11
2018-04-07T10:02:36.007Z,100486.03
2018-04-07T10:05:07.639Z,100482.95
2018-04-07T10:07:35.949Z,100477.75
2018-04-07T10:10:07.826Z,100474.84
2018-04-07T10:12:36.118Z,100482.10
2018-04-07T10:15:07.844Z,100488.98
2018-04-07T10:17:36.505Z,100496.36
2018-04-07T10:20:06.470Z,100495.64
2018-04-07T10:22:34.759Z,100484.06
2018-04-07T10:25:06.925Z,100480.87
2018-04-07T10:27:35.826Z,100475.22
2018-04-07T10:30:07.205Z,100485.56
2018-04-07T10:32:35.489Z,100484.88
2018-04-07T10:35:07.358Z,100475.28
2018-04-07T10:37:35.652Z,100478.88
2018-04-07T10:40:07.593Z,100462.66
2018-04-07T10:42:35.986Z,100482.53
2018-04-07T10:45:07.941Z,100470.45
2018-04-07T10:47:36.389Z,100464.66
2018-04-07T10:50:06.261Z,100455.51
2018-04-07T10:52:34.572Z,100444.70
2018-04-07T10:55:06.567Z,100448.62
2018-04-07T10:57:35.060Z,100445.00
2018-04-07T11:00:07.321Z,100447.23
2018-04-07T11:02:35.624Z,100445.73
2018-04-07T11:05:06.245Z,100443.58
2018-04-07T11:07:35.422Z,100427.69
2018-04-07T11:10:07.058Z,100436.64
2018-04-07T11:12:35.399Z,100425.30
2018-04-07T11:15:07.225Z,100424.20
2018-04-07T11:17:36.677Z,100430.34
2018-04-07T11:20:08.172Z,100411.05
2018-04-07T11:22:36.564Z,100416.18
2018-04-07T11:25:08.043Z,100404.91
2018-04-07T11:27:36.345Z,100409.06
2018-04-07T11:30:06.291Z,100411.30
2018-04-07T11:32:34.852Z,100409.87
2018-04-07T11:35:06.344Z,100407.63
2018-04-07T11:37:34.685Z,100402.75
2018-04-07T11:40:06.192Z,100390.66
2018-04-07T11:42:34.492Z,100399.78
2018-04-07T11:45:09.582Z,100389.53
2018-04-07T11:47:38.404Z,100394.45
2018-04-07T11:50:07.493Z,100381.02
2018-04-07T11:52:36.117Z,100376.91
2018-04-07T11:55:07.366Z,100385.36
2018-04-07T11:57:35.640Z,100396.06
2018-04-07T12:00:07.677Z,100388.91
2018-04-07T12:02:35.984Z,100390.08
2018-04-07T12:05:07.246Z,100381.25
2018-04-07T12:07:35.645Z,100371.46
2018-04-07T12:10:07.661Z,100375.12
2018-04-07T12:12:35.935Z,100385.22
2018-04-07T12:15:07.466Z,100383.66
2018-04-07T12:17:35.757Z,100367.91
2018-04-07T12:20:07.081Z,100372.39
2018-04-07T12:22:35.359Z,100377.23
2018-04-07T12:25:07.548Z,100369.59
2018-04-07T12:27:35.865Z,100362.69
2018-04-07T12:30:07.997Z,100374.28
2018-04-07T12:32:36.300Z,100371.10
2018-04-07T12:35:08.572Z,100345.06
2018-04-07T12:37:37.202Z,100361.52
2018-04-07T12:40:06.606Z,100357.97
2018-04-07T12:42:34.907Z,100360.38
2018-04-07T12:45:06.370Z,100347.67
2018-04-07T12:47:34.673Z,100346.96
2018-04-07T12:50:06.165Z,100346.27
2018-04-07T12:52:34.548Z,100340.25
2018-04-07T12:55:07.805Z,100338.95
2018-04-07T12:57:36.092Z,100336.45
2018-04-07T13:00:08.489Z,100337.38
2018-04-07T13:02:36.828Z,100330.09
2018-04-07T13:05:06.892Z,100318.98
2018-04-07T13:07:35.181Z,100312.90
2018-04-07T13:10:06.729Z,100303.45
2018-04-07T13:12:35.022Z,100315.56
2018-04-07T13:15:07.684Z,100305.98
2018-04-07T13:17:35.989Z,100298.77
2018-04-07T13:20:07.426Z,100291.53
2018-04-07T13:22:36.015Z,100281.56
2018-04-07T13:25:06.585Z,100284.61
2018-04-07T13:27:34.860Z,100276.40
2018-04-07T13:30:06.683Z,100269.59
2018-04-07T13:32:35.000Z,100263.39
2018-04-07T13:35:09.044Z,100257.33
2018-04-07T13:37:37.386Z,100243.81
2018-04-07T13:40:06.740Z,100247.14
2018-04-07T13:42:35.041Z,100239.47
2018-04-07T13:45:06.536Z,100237.59
2018-04-07T13:47:34.816Z,100230.70
2018-04-07T13:50:06.596Z,100223.48
2018-04-07T13:52:34.871Z,100222.78
2018-04-07T13:55:07.118Z,100214.33
2018-04-07T13:57:35.389Z,100219.22
2018-04-07T14:00:06.717Z,100218.03
2018-04-07T14:02:35.004Z,100211.11
2018-04-07T14:05:06.823Z,100206.63
2018-04-07T14:07:35.118Z,100197.11
2018-04-07T14:10:06.496Z,100185.11
2018-04-07T14:12:34.986Z,100194.99
2018-04-07T14:15:06.369Z,100190.98
2018-04-07T14:17:34.906Z,100187.33
2018-04-07T14:20:06.946Z,100191.73
2018-04-07T14:22:35.343Z,100179.20
2018-04-07T14:25:07.298Z,100167.97
2018-04-07T14:27:35.581Z,100167.32
2018-04-07T14:30:07.560Z,100169.03
2018-04-07T14:32:36.274Z,100167.63
2018-04-07T14:35:06.440Z,100165.45
2018-04-07T14:37:36.614Z,100169.34
2018-04-07T14:40:08.316Z,100165.08
2018-04-07T14:42:36.596Z,100166.43
2018-04-07T14:45:07.005Z,100156.88
2018-04-07T14:47:35.302Z,100169.07
2018-04-07T14:50:07.150Z,100162.27
2018-04-07T14:52:35.437Z,100164.03
2018-04-07T14:55:07.345Z,100161.16
2018-04-07T14:57:35.666Z,100173.95
2018-04-07T15:00:05.701Z,100167.95
2018-04-07T15:02:34.036Z,100163.62
2018-04-07T15:05:05.620Z,100170.19
2018-04-07T15:07:33.941Z,100178.34
2018-04-07T15:10:05.807Z,100165.61
2018-04-07T15:12:34.098Z,100155.27
2018-04-07T15:15:05.524Z,100155.42
2018-04-07T15:17:34.207Z,100149.85
2018-04-07T15:20:05.544Z,100149.14
2018-04-07T15:22:33.926Z,100154.20
2018-04-07T15:25:05.813Z,100159.33
2018-04-07T15:27:34.110Z,100155.04
2018-04-07T15:30:06.242Z,100155.72
2018-04-07T15:32:34.573Z,100151.66
2018-04-07T15:35:06.612Z,100150.31
2018-04-07T15:37:34.974Z,100156.56
2018-04-07T15:40:07.004Z,100166.19
2018-04-07T15:42:35.323Z,100164.55
2018-04-07T15:45:07.760Z,100159.78
2018-04-07T15:47:36.064Z,100163.09
2018-04-07T15:50:05.907Z,100153.27
2018-04-07T15:52:34.677Z,100153.44
2018-04-07T15:55:06.381Z,100153.20
2018-04-07T15:57:35.142Z,100146.03
2018-04-07T16:00:05.578Z,100141.19
2018-04-07T16:02:33.852Z,100144.09
2018-04-07T16:05:08.115Z,100145.19
2018-04-07T16:07:36.828Z,100133.33
2018-04-07T16:10:09.649Z,100137.68
2018-04-07T16:12:37.947Z,100131.95
2018-04-07T16:15:06.428Z,100142.72
2018-04-07T16:17:34.721Z,100140.92
2018-04-07T16:20:22.587Z,100137.78
2018-04-07T16:22:50.850Z,100146.96
2018-04-07T16:25:19.769Z,100142.64
2018-04-07T16:27:48.098Z,100137.22
2018-04-07T16:30:16.424Z,100131.95
2018-04-07T16:32:44.697Z,100140.65
2018-04-07T16:35:12.993Z,100137.66
2018-04-07T16:37:41.290Z,100140.11
2018-04-07T16:40:09.613Z,100138.27
2018-04-07T16:42:37.886Z,100132.09
2018-04-07T16:45:06.161Z,100117.27
2018-04-07T16:47:34.465Z,100127.80
2018-04-07T16:50:06.720Z,100127.73
2018-04-07T16:52:35.074Z,100130.50
2018-04-07T16:55:06.854Z,100129.38
2018-04-07T16:57:35.150Z,100126.06
2018-04-07T17:00:07.103Z,100126.20
2018-04-07T17:02:35.401Z,100131.48
2018-04-07T17:05:07.423Z,100132.59
2018-04-07T17:07:35.732Z,100138.55
2018-04-07T17:10:05.662Z,100133.97
2018-04-07T17:12:34.012Z,100139.27
2018-04-07T17:15:05.607Z,100136.84
2018-04-07T17:17:33.897Z,100141.35
2018-04-07T17:20:07.892Z,100140.88
2018-04-07T17:22:36.375Z,100148.99
2018-04-07T17:25:05.925Z,100149.30
2018-04-07T17:27:34.503Z,100149.94
2018-04-07T17:30:05.693Z,100146.98
2018-04-07T17:32:34.026Z,100159.05
2018-04-07T17:35:05.945Z,100159.54
2018-04-07T17:37:34.234Z,100161.23
2018-04-07T17:40:05.785Z,100155.84
2018-04-07T17:42:34.108Z,100167.17
2018-04-07T17:45:06.021Z,100164.12
2018-04-07T17:47:34.301Z,100169.73
2018-04-07T17:50:06.672Z,100162.89
2018-04-07T17:52:35.173Z,100170.22
2018-04-07T17:55:05.756Z,100162.94
2018-04-07T17:57:34.028Z,100165.13
2018-04-07T18:00:09.315Z,100166.06
2018-04-07T18:02:39.048Z,100165.02
2018-04-07T18:05:07.329Z,100169.20
2018-04-07T18:07:35.627Z,100168.98
2018-04-07T18:10:07.498Z,100175.21
2018-04-07T18:12:35.791Z,100176.48
2018-04-07T18:15:05.721Z,100178.67
2018-04-07T18:17:34.013Z,100177.92
2018-04-07T18:20:06.539Z,100182.07
2018-04-07T18:22:34.805Z,100184.56
2018-04-07T18:25:06.773Z,100185.09
2018-04-07T18:27:35.355Z,100187.41
2018-04-07T18:30:07.309Z,100183.70
2018-04-07T18:32:35.546Z,100189.17
2018-04-07T18:35:07.568Z,100195.83
2018-04-07T18:37:35.843Z,100193.28
2018-04-07T18:40:06.155Z,100200.63
2018-04-07T18:42:34.426Z,100198.69
2018-04-07T18:45:05.788Z,100200.34
2018-04-07T18:47:34.096Z,100204.77
2018-04-07T18:50:06.048Z,100205.06
2018-04-07T18:52:34.408Z,100211.06
2018-04-07T18:55:08.590Z,100210.17
2018-04-07T18:57:36.866Z,100216.47
2018-04-07T19:00:06.200Z,100222.30
2018-04-07T19:02:34.475Z,100222.21
2018-04-07T19:05:06.419Z,100223.55
2018-04-07T19:07:34.750Z,100222.73
2018-04-07T19:10:06.785Z,100226.25
2018-04-07T19:12:35.075Z,100227.59
2018-04-07T19:15:05.873Z,100225.72
2018-04-07T19:17:34.957Z,100224.80
2018-04-07T19:20:06.594Z,100225.81
2018-04-07T19:22:34.900Z,100232.88
2018-04-07T19:25:07.158Z,100236.47
2018-04-07T19:27:35.428Z,100229.03
2018-04-07T19:30:07.097Z,100235.53
2018-04-07T19:32:36.413Z,100242.08
2018-04-07T19:35:06.834Z,100238.66
2018-04-07T19:37:35.085Z,100238.83
2018-04-07T19:40:07.009Z,100243.48
2018-04-07T19:42:35.306Z,100239.31
2018-04-07T19:45:07.929Z,100242.84
2018-04-07T19:47:36.237Z,100244.19
2018-04-07T19:50:06.244Z,100249.77
2018-04-07T19:52:35.168Z,100256.38
2018-04-07T19:55:06.745Z,100249.23
2018-04-07T19:57:35.037Z,100255.83
2018-04-07T20:00:07.042Z,100253.77
2018-04-07T20:02:35.617Z,100253.11
2018-04-07T20:05:08.074Z,100258.94
2018-04-07T20:07:36.370Z,100257.70
2018-04-07T20:10:06.095Z,100258.69
2018-04-07T20:12:34.409Z,100256.03
2018-04-07T20:15:06.545Z,100256.02
2018-04-07T20:17:35.129Z,100258.52
2018-04-07T20:20:06.871Z,100263.77
2018-04-07T20:22:35.178Z,100266.53
2018-04-07T20:25:05.871Z,100259.52
2018-04-07T20:27:34.183Z,100262.33
2018-04-07T20:30:07.367Z,100264.63
2018-04-07T20:32:35.627Z,100257.77
2018-04-07T20:35:07.751Z,100265.24
2018-04-07T20:37:36.036Z,100264.45
2018-04-07T20:40:09.096Z,100265.23
2018-04-07T20:42:37.386Z,100261.22
2018-04-07T20:45:05.924Z,100259.88
2018-04-07T20:47:34.210Z,100260.17
2018-04-07T20:50:09.294Z,100261.09
2018-04-07T20:52:37.622Z,100256.22
2018-04-07T20:55:05.975Z,100261.09
2018-04-07T20:57:34.265Z,100250.81
2018-04-07T21:00:05.743Z,100252.14
2018-04-07T21:02:34.017Z,100250.79
2018-04-07T21:05:05.308Z,100252.49
2018-04-07T21:07:33.824Z,100252.02
2018-04-07T21:10:08.962Z,100248.44
2018-04-07T21:12:37.229Z,100252.33
2018-04-07T21:15:06.430Z,100252.16
2018-04-07T21:17:34.978Z,100247.50
2018-04-07T21:20:06.779Z,100247.83
2018-04-07T21:22:35.079Z,100241.52
2018-04-07T21:25:07.007Z,100245.67
2018-04-07T21:27:35.313Z,100239.97
2018-04-07T21:30:07.529Z,100247.95
2018-04-07T21:32:35.825Z,100247.95
2018-04-07T21:35:07.021Z,100244.94
2018-04-07T21:37:35.329Z,100246.25
2018-04-07T21:40:06.505Z,100245.69
2018-04-07T21:42:34.799Z,100247.24
2018-04-07T21:45:07.035Z,100243.98
2018-04-07T21:47:35.358Z,100247.98
2018-04-07T21:50:05.880Z,100255.83
2018-04-07T21:52:34.248Z,100254.41
2018-04-07T21:55:07.465Z,100253.55
2018-04-07T21:57:35.785Z,100253.67
2018-04-07T22:00:06.984Z,100253.89
2018-04-07T22:02:35.431Z,100229.55
2018-04-07T22:05:07.489Z,100246.98
2018-04-07T22:07:35.790Z,100250.17
2018-04-07T22:10:08.008Z,100248.70
2018-04-07T22:12:36.552Z,100250.73
2018-04-07T22:15:06.392Z,100250.59
2018-04-07T22:17:34.668Z,100247.92
2018-04-07T22:20:06.730Z,100246.57
2018-04-07T22:22:35.112Z,100255.70
2018-04-07T22:25:07.036Z,100254.54
2018-04-07T22:27:35.349Z,100251.18
2018-04-07T22:30:08.059Z,100252.62
2018-04-07T22:32:36.313Z,100243.82
2018-04-07T22:35:07.825Z,100250.93
2018-04-07T22:37:36.105Z,100250.61
2018-04-07T22:40:06.214Z,100249.69
2018-04-07T22:42:34.694Z,100243.29
2018-04-07T22:45:06.928Z,100242.70
2018-04-07T22:47:35.217Z,100240.61
2018-04-07T22:50:07.043Z,100239.27
2018-04-07T22:52:35.316Z,100240.34
2018-04-07T22:55:07.366Z,100242.54
2018-04-07T22:57:35.702Z,100242.20
2018-04-07T23:00:07.831Z,100241.46
2018-04-07T23:02:36.106Z,100231.16
2018-04-07T23:05:06.192Z,100241.94
2018-04-07T23:07:34.484Z,100237.94
2018-04-07T23:10:09.602Z,100244.89
2018-04-07T23:12:37.901Z,100244.58
2018-04-07T23:15:06.184Z,100249.59
2018-04-07T23:17:34.515Z,100241.69
2018-04-07T23:20:09.841Z,100242.62
2018-04-07T23:22:38.154Z,100239.20
2018-04-07T23:25:06.480Z,100237.74
2018-04-07T23:27:34.730Z,100235.57
2018-04-07T23:30:08.877Z,100235.02
2018-04-07T23:32:37.291Z,100236.14
2018-04-07T23:35:06.397Z,100234.27
2018-04-07T23:37:34.692Z,100233.98
2018-04-07T23:40:06.782Z,100229.38
2018-04-07T23:42:35.074Z,100232.96
2018-04-07T23:45:07.187Z,100235.81
2018-04-07T23:47:35.473Z,100226.53
2018-04-07T23:50:06.117Z,100231.81
2018-04-07T23:52:34.637Z,100231.81
2018-04-07T23:55:06.930Z,100228.10
2018-04-07T23:57:35.211Z,100225.86
